Time;durP1;ratioP1;P1;durP2;ratioP2;P2;SDS_P1;SDS_P2;PMS_P1;PMS_P2;Temp;Humidity;BMP_temperature;BMP_pressure;BME280_temperature;BME280_humidity;BME280_pressure;Samples;Min_cycle;Max_cycle;Signal;HPM_P1;HPM_P2
2023/06/17 00:01:04;;;;;;;9.97;8.97;;;17.20;99.90;;;;;;4988767;28;20237;-70
2023/06/17 00:03:29;;;;;;;11.00;8.50;;;17.20;99.90;;;;;;4984810;28;20635;-71
2023/06/17 00:05:55;;;;;;;9.00;8.30;;;17.20;99.90;;;;;;4990187;28;20455;-71
2023/06/17 00:08:20;;;;;;;8.00;7.30;;;17.10;99.90;;;;;;4964302;28;20179;-70
2023/06/17 00:10:46;;;;;;;9.70;8.70;;;17.10;99.90;;;;;;4974726;28;20368;-70
2023/06/17 00:13:18;;;;;;;10.43;8.43;;;17.10;99.90;;;;;;4990285;28;20180;-71
2023/06/17 00:15:56;;;;;;;8.93;8.23;;;17.00;99.90;;;;;;4984274;28;20463;-71
2023/06/17 00:18:26;;;;;;;9.50;8.70;;;17.00;99.90;;;;;;4968392;28;20841;-71
2023/06/17 00:20:52;;;;;;;8.37;7.47;;;17.00;99.90;;;;;;4981950;28;20470;-72
2023/06/17 00:23:21;;;;;;;8.23;7.37;;;16.90;99.90;;;;;;4976308;28;20439;-72
2023/06/17 00:25:48;;;;;;;11.67;8.13;;;16.80;99.90;;;;;;4975520;28;20471;-72
2023/06/17 00:28:14;;;;;;;8.67;7.97;;;16.70;99.90;;;;;;4974489;28;20797;-72
2023/06/17 00:30:40;;;;;;;8.63;7.77;;;16.70;99.90;;;;;;4975512;28;20439;-72
2023/06/17 00:33:05;;;;;;;8.13;7.43;;;16.70;99.90;;;;;;4979825;28;20607;-71
2023/06/17 00:35:32;;;;;;;9.10;8.30;;;16.70;99.90;;;;;;4975606;28;20215;-72
2023/06/17 00:37:58;;;;;;;8.57;7.43;;;16.70;99.90;;;;;;4975383;28;20230;-72
2023/06/17 00:40:24;;;;;;;7.87;7.00;;;16.70;99.90;;;;;;4975703;28;20984;-72
2023/06/17 00:42:49;;;;;;;7.87;7.27;;;16.70;99.90;;;;;;4981353;28;20171;-72
2023/06/17 00:45:15;;;;;;;8.60;7.90;;;16.60;99.90;;;;;;4975379;28;20196;-72
2023/06/17 00:47:41;;;;;;;8.10;7.30;;;16.60;99.90;;;;;;4975342;28;20646;-72
2023/06/17 00:50:09;;;;;;;8.90;8.20;;;16.60;99.90;;;;;;4975071;28;20259;-72
2023/06/17 00:52:36;;;;;;;7.83;7.13;;;16.60;99.90;;;;;;4974086;28;20454;-71
2023/06/17 00:55:01;;;;;;;7.67;6.90;;;16.60;99.90;;;;;;4971157;28;20459;-72
2023/06/17 00:57:28;;;;;;;7.73;7.03;;;16.60;99.90;;;;;;4973596;28;20446;-72
2023/06/17 00:59:54;;;;;;;8.07;7.37;;;16.40;99.90;;;;;;4975332;28;20739;-72
2023/06/17 01:02:20;;;;;;;8.77;7.57;;;16.30;99.90;;;;;;4978811;28;20426;-72
2023/06/17 01:04:48;;;;;;;7.50;6.83;;;16.30;99.90;;;;;;4974698;28;20204;-71
2023/06/17 01:07:35;;;;;;;8.60;7.63;;;16.30;99.90;;;;;;4974470;28;20671;-72
2023/06/17 01:10:17;;;;;;;8.43;7.73;;;16.40;99.90;;;;;;4984936;28;21011;-71
2023/06/17 01:12:44;;;;;;;8.47;7.67;;;16.30;99.90;;;;;;4985001;28;20438;-70
2023/06/17 01:15:13;;;;;;;8.27;7.57;;;16.30;99.90;;;;;;4975110;28;20463;-70
2023/06/17 01:17:44;;;;;;;8.40;7.70;;;16.30;99.90;;;;;;4970513;28;20439;-69
2023/06/17 01:20:12;;;;;;;8.47;7.50;;;16.30;99.90;;;;;;4986043;28;20455;-70
2023/06/17 01:22:39;;;;;;;9.10;8.30;;;16.20;99.90;;;;;;4987837;28;20435;-70
2023/06/17 01:25:06;;;;;;;8.00;7.33;;;16.10;99.90;;;;;;4977661;28;20475;-69
2023/06/17 01:27:33;;;;;;;8.53;7.80;;;16.00;99.90;;;;;;4977620;28;21083;-70
2023/06/17 01:29:59;;;;;;;8.70;8.00;;;16.00;99.90;;;;;;4973169;28;20439;-70
2023/06/17 01:32:25;;;;;;;8.40;7.70;;;16.00;99.90;;;;;;4974611;28;20451;-70
2023/06/17 01:35:00;;;;;;;8.87;8.07;;;16.00;99.90;;;;;;4975583;28;20535;-70
2023/06/17 01:37:40;;;;;;;9.10;8.13;;;16.00;99.90;;;;;;4974914;28;20176;-70
2023/06/17 01:40:10;;;;;;;9.57;8.53;;;16.00;99.90;;;;;;4983045;28;20498;-70
2023/06/17 01:42:41;;;;;;;8.37;7.40;;;16.00;99.90;;;;;;4981232;28;20426;-70
2023/06/17 01:45:07;;;;;;;9.20;8.30;;;16.00;99.90;;;;;;4980525;28;20475;-69
2023/06/17 01:47:33;;;;;;;9.00;8.30;;;16.00;99.90;;;;;;4982869;28;20432;-69
2023/06/17 01:50:01;;;;;;;8.40;7.60;;;16.00;99.90;;;;;;4979837;28;20450;-69
2023/06/17 01:52:27;;;;;;;8.20;7.60;;;15.90;99.90;;;;;;4974051;28;20451;-71
2023/06/17 01:54:52;;;;;;;9.00;8.17;;;15.80;99.90;;;;;;4976988;28;20439;-70
2023/06/17 01:57:18;;;;;;;9.07;8.30;;;15.80;99.90;;;;;;4971574;28;20185;-69
2023/06/17 01:59:44;;;;;;;8.27;7.47;;;15.80;99.90;;;;;;4983593;28;20187;-70
2023/06/17 02:02:09;;;;;;;8.20;7.50;;;15.70;99.90;;;;;;4978790;28;20538;-70
2023/06/17 02:04:35;;;;;;;10.17;9.17;;;15.70;99.90;;;;;;4972078;28;20650;-70
2023/06/17 02:07:01;;;;;;;8.37;7.47;;;15.80;99.90;;;;;;4974429;28;20180;-69
2023/06/17 02:09:27;;;;;;;9.10;8.40;;;15.70;99.90;;;;;;4977435;28;20660;-70
2023/06/17 02:11:52;;;;;;;8.87;8.10;;;15.80;99.90;;;;;;4985916;28;20431;-72
2023/06/17 02:14:18;;;;;;;8.90;8.20;;;15.70;99.90;;;;;;4977606;28;20263;-71
2023/06/17 02:16:48;;;;;;;9.70;8.20;;;15.80;99.90;;;;;;4971841;28;20795;-70
2023/06/17 02:19:15;;;;;;;9.50;8.60;;;15.70;99.90;;;;;;4984461;28;20521;-71
2023/06/17 02:21:44;;;;;;;8.60;7.80;;;15.70;99.90;;;;;;4981675;28;20550;-71
2023/06/17 02:24:10;;;;;;;10.53;8.70;;;15.60;99.90;;;;;;4984915;28;20438;-72
2023/06/17 02:26:36;;;;;;;9.23;7.90;;;15.60;99.90;;;;;;4978749;28;20499;-71
2023/06/17 02:29:02;;;;;;;12.60;10.23;;;15.60;99.90;;;;;;4971459;28;20527;-72
2023/06/17 02:31:28;;;;;;;9.63;8.77;;;15.70;99.90;;;;;;4975809;28;20430;-72
2023/06/17 02:33:55;;;;;;;10.10;9.20;;;15.70;99.90;;;;;;4981192;28;20518;-71
2023/06/17 02:36:20;;;;;;;9.33;8.50;;;15.60;99.90;;;;;;4967866;28;20466;-71
2023/06/17 02:38:46;;;;;;;9.80;9.00;;;15.60;99.90;;;;;;4978058;28;20428;-71
2023/06/17 02:41:12;;;;;;;10.80;9.90;;;15.50;99.90;;;;;;4970138;28;20204;-71
2023/06/17 02:43:37;;;;;;;9.10;8.30;;;15.50;99.90;;;;;;4978317;28;20176;-71
2023/06/17 02:46:03;;;;;;;8.60;7.60;;;15.40;99.90;;;;;;4975487;28;20203;-71
2023/06/17 02:48:28;;;;;;;10.47;9.67;;;15.40;99.90;;;;;;4976982;28;20665;-70
2023/06/17 02:50:54;;;;;;;10.10;9.27;;;15.30;99.90;;;;;;4979903;28;20180;-71
2023/06/17 02:53:20;;;;;;;11.07;10.07;;;15.30;99.90;;;;;;4973498;28;20183;-71
2023/06/17 02:55:46;;;;;;;11.10;9.67;;;15.30;99.90;;;;;;4977512;28;20459;-71
2023/06/17 02:58:15;;;;;;;10.20;9.20;;;15.30;99.90;;;;;;4975417;28;20179;-71
2023/06/17 03:00:42;;;;;;;11.37;10.37;;;15.20;99.90;;;;;;4984662;28;20459;-71
2023/06/17 03:03:09;;;;;;;11.47;10.47;;;15.10;99.90;;;;;;4977868;28;20431;-71
2023/06/17 03:05:37;;;;;;;12.10;11.10;;;15.30;99.90;;;;;;4972967;28;20462;-71
2023/06/17 03:08:03;;;;;;;12.07;10.87;;;15.20;99.90;;;;;;4975980;28;21016;-71
2023/06/17 03:10:28;;;;;;;12.40;11.20;;;15.20;99.90;;;;;;4983863;28;20434;-70
2023/06/17 03:12:54;;;;;;;11.60;10.10;;;15.20;99.90;;;;;;4983904;28;20944;-71
2023/06/17 03:15:20;;;;;;;11.57;10.37;;;15.20;99.90;;;;;;4972420;28;20200;-71
2023/06/17 03:17:46;;;;;;;9.73;9.03;;;15.10;99.90;;;;;;4972040;28;20196;-72
2023/06/17 03:20:12;;;;;;;9.90;9.10;;;15.10;99.90;;;;;;4992271;28;20861;-72
2023/06/17 03:22:37;;;;;;;9.10;8.20;;;15.00;99.90;;;;;;4986649;28;20171;-71
2023/06/17 03:25:03;;;;;;;9.30;8.60;;;15.10;99.90;;;;;;4972921;28;20208;-72
2023/06/17 03:27:29;;;;;;;9.00;8.30;;;15.10;99.90;;;;;;4979678;28;20180;-72
2023/06/17 03:29:55;;;;;;;10.57;9.30;;;15.10;99.90;;;;;;4981577;28;20265;-72
2023/06/17 03:32:20;;;;;;;11.17;9.17;;;15.10;99.90;;;;;;4984265;28;20432;-70
2023/06/17 03:34:46;;;;;;;10.40;9.50;;;15.10;99.90;;;;;;4980732;28;20172;-70
2023/06/17 03:37:11;;;;;;;10.07;9.17;;;15.10;99.90;;;;;;4973534;28;20234;-71
2023/06/17 03:39:37;;;;;;;9.37;8.57;;;15.10;99.90;;;;;;4974185;28;20545;-69
2023/06/17 03:42:03;;;;;;;10.23;9.23;;;15.20;99.90;;;;;;4972753;28;20645;-70
2023/06/17 03:44:28;;;;;;;9.03;8.33;;;15.20;99.90;;;;;;4978130;28;20202;-71
2023/06/17 03:46:56;;;;;;;9.80;8.90;;;15.20;99.90;;;;;;4983158;28;20450;-69
2023/06/17 03:49:22;;;;;;;10.00;9.00;;;15.20;99.90;;;;;;4979106;28;20242;-71
2023/06/17 03:51:47;;;;;;;10.00;9.20;;;15.10;99.90;;;;;;4972307;28;20469;-71
2023/06/17 03:54:13;;;;;;;10.57;9.67;;;15.20;99.90;;;;;;4975845;28;20187;-71
2023/06/17 03:56:39;;;;;;;10.47;9.50;;;15.10;99.90;;;;;;4977130;28;20259;-71
2023/06/17 03:59:05;;;;;;;10.83;9.83;;;15.10;99.90;;;;;;4965637;28;20188;-69
2023/06/17 04:01:30;;;;;;;9.57;8.73;;;15.20;99.90;;;;;;4971147;28;21031;-71
2023/06/17 04:03:56;;;;;;;10.30;9.30;;;15.20;99.90;;;;;;4956047;28;20188;-71
2023/06/17 04:06:21;;;;;;;11.00;9.90;;;15.20;99.90;;;;;;4975780;28;20696;-71
2023/06/17 04:08:47;;;;;;;9.83;8.80;;;15.20;99.90;;;;;;4981889;28;20226;-71
2023/06/17 04:11:13;;;;;;;10.27;9.40;;;15.30;99.90;;;;;;4972878;28;20231;-71
2023/06/17 04:13:38;;;;;;;17.77;14.83;;;15.20;99.90;;;;;;4970904;28;20254;-71
2023/06/17 04:16:04;;;;;;;11.30;10.27;;;15.10;99.90;;;;;;4969939;28;20215;-70
2023/06/17 04:18:29;;;;;;;9.17;8.20;;;15.10;99.90;;;;;;4967082;28;20188;-71
2023/06/17 04:20:56;;;;;;;11.50;8.97;;;15.20;99.90;;;;;;4970986;28;20196;-71
2023/06/17 04:23:24;;;;;;;9.03;8.33;;;15.20;99.90;;;;;;4979891;28;20180;-71
2023/06/17 04:25:50;;;;;;;10.03;9.13;;;15.30;99.90;;;;;;4973757;28;20478;-71
2023/06/17 04:28:17;;;;;;;12.00;11.00;;;15.30;99.90;;;;;;4974092;28;20443;-70
2023/06/17 04:30:45;;;;;;;10.73;9.87;;;15.40;99.90;;;;;;4981333;28;20439;-71
2023/06/17 04:33:14;;;;;;;10.53;9.63;;;15.40;99.90;;;;;;4980503;28;20829;-70
2023/06/17 04:35:42;;;;;;;10.67;9.77;;;15.50;99.90;;;;;;4980414;28;20565;-70
2023/06/17 04:38:09;;;;;;;9.50;8.80;;;15.60;99.90;;;;;;4979743;28;20435;-70
2023/06/17 04:40:36;;;;;;;11.00;9.90;;;15.60;99.90;;;;;;4970165;28;20463;-70
2023/06/17 04:43:02;;;;;;;11.27;10.40;;;15.70;99.90;;;;;;4973518;28;20438;-70
2023/06/17 04:45:28;;;;;;;11.63;10.40;;;15.80;99.90;;;;;;4984025;28;20435;-71
2023/06/17 04:47:53;;;;;;;11.90;10.70;;;15.90;99.90;;;;;;4984260;28;20176;-70
2023/06/17 04:50:19;;;;;;;11.33;10.07;;;16.00;99.90;;;;;;4982955;28;20301;-70
2023/06/17 04:52:50;;;;;;;12.07;11.07;;;16.00;99.90;;;;;;4975485;28;20188;-69
2023/06/17 04:55:18;;;;;;;10.80;9.83;;;16.00;99.90;;;;;;4983056;28;20517;-70
2023/06/17 04:57:44;;;;;;;10.37;9.57;;;16.10;99.90;;;;;;4974642;28;20439;-69
2023/06/17 05:00:10;;;;;;;9.77;9.00;;;16.20;99.90;;;;;;4975080;28;20497;-70
2023/06/17 05:02:39;;;;;;;12.73;11.57;;;16.30;99.90;;;;;;4973439;28;20431;-70
2023/06/17 05:05:06;;;;;;;12.50;11.20;;;16.50;99.90;;;;;;4971789;28;20502;-70
2023/06/17 05:07:35;;;;;;;11.43;10.50;;;16.80;99.90;;;;;;4978653;28;20443;-70
2023/06/17 05:10:01;;;;;;;11.30;10.40;;;16.80;99.90;;;;;;4979007;28;20501;-69
2023/06/17 05:12:27;;;;;;;11.83;10.70;;;16.90;99.90;;;;;;4974508;28;20427;-69
2023/06/17 05:14:53;;;;;;;11.87;10.77;;;16.90;99.90;;;;;;4983663;28;20806;-70
2023/06/17 05:17:18;;;;;;;11.80;10.80;;;17.00;99.90;;;;;;4986949;28;20179;-70
2023/06/17 05:19:44;;;;;;;11.57;10.37;;;17.00;99.90;;;;;;4978855;28;20262;-70
2023/06/17 05:22:09;;;;;;;10.37;9.40;;;17.00;99.90;;;;;;4978912;28;20175;-70
2023/06/17 05:24:35;;;;;;;11.00;9.90;;;17.10;99.90;;;;;;4972834;28;20529;-70
2023/06/17 05:27:00;;;;;;;10.83;9.73;;;17.20;99.90;;;;;;4977939;28;20196;-70
2023/06/17 05:29:26;;;;;;;11.47;10.30;;;17.40;99.90;;;;;;4986008;28;20234;-68
2023/06/17 05:31:52;;;;;;;12.70;11.60;;;17.70;99.90;;;;;;4983678;28;20221;-69
2023/06/17 05:34:18;;;;;;;10.40;9.50;;;18.00;99.90;;;;;;4975343;28;20442;-69
2023/06/17 05:36:43;;;;;;;10.33;9.50;;;18.30;99.90;;;;;;4982771;28;20286;-70
2023/06/17 05:39:09;;;;;;;11.40;10.33;;;18.60;99.90;;;;;;4984840;28;20211;-70
2023/06/17 05:41:34;;;;;;;11.00;10.00;;;18.80;99.90;;;;;;4977946;28;20204;-70
2023/06/17 05:44:00;;;;;;;11.10;10.20;;;19.10;99.90;;;;;;4954506;28;20271;-69
2023/06/17 05:46:25;;;;;;;10.97;9.80;;;19.20;99.90;;;;;;4979398;28;20744;-70
2023/06/17 05:48:51;;;;;;;11.30;10.37;;;19.30;99.90;;;;;;4985348;28;20818;-68
2023/06/17 05:51:17;;;;;;;11.90;10.33;;;19.40;99.90;;;;;;4975055;28;20252;-69
2023/06/17 05:53:42;;;;;;;10.23;9.40;;;19.60;99.90;;;;;;4973445;28;20298;-70
2023/06/17 05:56:11;;;;;;;10.50;9.70;;;19.70;99.90;;;;;;4979640;28;20217;-69
2023/06/17 05:58:37;;;;;;;11.00;10.00;;;19.90;99.90;;;;;;4973638;28;20596;-70
2023/06/17 06:01:03;;;;;;;10.50;9.37;;;20.00;99.90;;;;;;4985296;28;20553;-69
2023/06/17 06:03:28;;;;;;;10.80;9.27;;;20.30;99.90;;;;;;4970630;28;20211;-69
2023/06/17 06:05:54;;;;;;;10.03;9.27;;;20.50;99.90;;;;;;4971965;28;20499;-70
2023/06/17 06:08:19;;;;;;;10.20;9.30;;;20.60;99.90;;;;;;4980298;28;20595;-70
2023/06/17 06:10:45;;;;;;;9.50;8.80;;;20.70;99.90;;;;;;4972731;28;20184;-70
2023/06/17 06:13:11;;;;;;;10.53;9.63;;;20.80;99.90;;;;;;4977225;28;20184;-69
2023/06/17 06:15:36;;;;;;;10.97;10.00;;;20.90;99.90;;;;;;4971760;28;20208;-69
2023/06/17 06:18:02;;;;;;;12.70;9.20;;;21.10;99.90;;;;;;4967654;28;20557;-68
2023/06/17 06:20:28;;;;;;;10.27;9.33;;;21.30;99.90;;;;;;4981591;28;20195;-70
2023/06/17 06:22:54;;;;;;;10.43;9.30;;;21.50;99.90;;;;;;4974275;28;20266;-70
2023/06/17 06:25:20;;;;;;;11.10;10.00;;;21.80;99.90;;;;;;4973354;28;20559;-70
2023/06/17 06:27:48;;;;;;;10.47;9.47;;;22.10;99.80;;;;;;4973861;28;20235;-70
2023/06/17 06:30:15;;;;;;;10.33;9.30;;;22.40;98.70;;;;;;4985476;28;20505;-70
2023/06/17 06:32:40;;;;;;;10.40;9.60;;;22.60;97.30;;;;;;4985178;28;20871;-70
2023/06/17 06:35:06;;;;;;;9.97;9.07;;;22.80;96.00;;;;;;4972301;28;20495;-72
2023/06/17 06:37:32;;;;;;;9.50;8.70;;;22.90;95.00;;;;;;4970419;28;20195;-72
2023/06/17 06:39:57;;;;;;;11.10;9.27;;;23.10;94.40;;;;;;4960993;28;20842;-72
2023/06/17 06:42:23;;;;;;;9.97;9.07;;;23.20;93.40;;;;;;4976122;28;20183;-70
2023/06/17 06:44:48;;;;;;;13.00;8.90;;;23.20;93.50;;;;;;4976221;28;20176;-69
2023/06/17 06:47:14;;;;;;;9.40;8.50;;;23.50;92.10;;;;;;4972091;28;20183;-69
2023/06/17 06:49:39;;;;;;;8.93;8.20;;;23.80;91.10;;;;;;4972405;28;20214;-70
2023/06/17 06:52:05;;;;;;;11.27;8.80;;;24.10;89.20;;;;;;4979841;28;20684;-70
2023/06/17 06:54:31;;;;;;;9.60;8.60;;;24.50;87.90;;;;;;4976928;28;20654;-70
2023/06/17 06:56:56;;;;;;;8.70;7.97;;;24.70;83.20;;;;;;4972063;28;20188;-68
2023/06/17 06:59:22;;;;;;;9.07;8.27;;;24.90;81.20;;;;;;4971554;28;20192;-69
2023/06/17 07:01:47;;;;;;;9.10;8.40;;;25.00;78.80;;;;;;4969531;28;20210;-70
2023/06/17 07:04:13;;;;;;;8.80;8.00;;;25.10;77.50;;;;;;4972814;28;20291;-72
2023/06/17 07:06:38;;;;;;;8.73;7.93;;;25.20;75.80;;;;;;4974520;28;20200;-73
2023/06/17 07:09:04;;;;;;;9.00;8.27;;;25.00;75.20;;;;;;4962434;28;20190;-73
2023/06/17 07:11:29;;;;;;;8.80;8.10;;;25.20;73.80;;;;;;4972411;28;20221;-73
2023/06/17 07:13:55;;;;;;;9.60;8.00;;;24.90;72.80;;;;;;4978527;28;20236;-73
2023/06/17 07:16:21;;;;;;;9.03;8.40;;;24.90;72.60;;;;;;4975922;28;20204;-73
2023/06/17 07:18:46;;;;;;;8.03;7.33;;;24.80;73.50;;;;;;4972566;28;20184;-73
2023/06/17 07:21:12;;;;;;;8.30;7.50;;;25.20;72.10;;;;;;4977246;28;20668;-73
2023/06/17 07:23:38;;;;;;;8.63;7.80;;;25.50;70.20;;;;;;4984228;28;20175;-73
2023/06/17 07:26:03;;;;;;;7.27;6.63;;;25.80;69.80;;;;;;4981673;28;21011;-73
2023/06/17 07:28:29;;;;;;;8.20;7.40;;;25.90;68.60;;;;;;4971813;28;20180;-73
2023/06/17 07:30:55;;;;;;;10.23;7.97;;;26.20;67.40;;;;;;4971495;28;20195;-73
2023/06/17 07:33:21;;;;;;;7.33;6.63;;;26.60;67.40;;;;;;4972610;28;20552;-73
2023/06/17 07:35:47;;;;;;;8.97;8.37;;;26.80;66.00;;;;;;4982318;28;20455;-73
2023/06/17 07:38:12;;;;;;;7.27;6.67;;;26.60;64.80;;;;;;4973596;28;20786;-74
2023/06/17 07:40:38;;;;;;;7.83;7.20;;;26.50;63.60;;;;;;4978156;28;20279;-73
2023/06/17 07:43:04;;;;;;;8.90;8.00;;;26.40;63.20;;;;;;4971097;28;20256;-73
2023/06/17 07:45:29;;;;;;;9.10;7.80;;;26.20;62.80;;;;;;4966531;28;20223;-73
2023/06/17 07:47:55;;;;;;;7.23;6.37;;;26.00;62.00;;;;;;4974017;28;20168;-73
2023/06/17 07:50:20;;;;;;;6.80;6.10;;;26.10;59.80;;;;;;4971168;28;20184;-73
2023/06/17 07:52:46;;;;;;;7.13;6.60;;;26.10;59.00;;;;;;4980204;28;20191;-73
2023/06/17 07:55:12;;;;;;;7.07;6.50;;;26.20;58.40;;;;;;4971228;28;20188;-73
2023/06/17 07:57:37;;;;;;;6.67;6.07;;;26.40;58.70;;;;;;4970735;28;20180;-73
2023/06/17 08:00:14;;;;;;;7.63;7.10;;;26.40;57.50;;;;;;4971146;28;20431;-73
2023/06/17 08:02:40;;;;;;;10.77;6.77;;;26.70;57.30;;;;;;4974684;28;20231;-73
2023/06/17 08:05:07;;;;;;;6.80;6.10;;;27.20;56.20;;;;;;4979203;28;20443;-73
2023/06/17 08:07:33;;;;;;;6.90;6.30;;;27.30;54.90;;;;;;4969618;28;20434;-73
2023/06/17 08:09:58;;;;;;;7.27;6.67;;;27.50;54.80;;;;;;4966139;28;20432;-73
2023/06/17 08:12:24;;;;;;;7.83;7.00;;;27.60;54.20;;;;;;4971551;28;20527;-73
2023/06/17 08:14:50;;;;;;;8.03;7.33;;;27.50;53.70;;;;;;4977786;28;20203;-73
2023/06/17 08:17:15;;;;;;;7.27;6.53;;;27.60;54.00;;;;;;4971762;28;20176;-73
2023/06/17 08:19:42;;;;;;;7.70;7.00;;;27.60;53.40;;;;;;4965186;28;20490;-73
2023/06/17 08:22:08;;;;;;;8.10;6.93;;;28.10;53.10;;;;;;4978474;28;20290;-73
2023/06/17 08:24:33;;;;;;;9.83;7.63;;;28.80;51.40;;;;;;4978440;28;20502;-73
2023/06/17 08:26:59;;;;;;;7.53;6.80;;;29.10;50.70;;;;;;4981101;28;20204;-73
2023/06/17 08:29:25;;;;;;;7.73;6.70;;;29.40;50.50;;;;;;4979352;28;20180;-73
2023/06/17 08:31:52;;;;;;;8.00;7.20;;;29.70;49.60;;;;;;4976162;28;20180;-73
2023/06/17 08:34:19;;;;;;;7.90;7.20;;;29.70;48.90;;;;;;4984418;28;20186;-73
2023/06/17 08:36:49;;;;;;;10.57;7.10;;;29.60;48.30;;;;;;4983944;28;20451;-73
2023/06/17 08:39:15;;;;;;;7.80;7.07;;;29.60;47.80;;;;;;4980573;28;20810;-73
2023/06/17 08:41:41;;;;;;;8.50;7.57;;;29.90;47.70;;;;;;4980503;28;20463;-74
2023/06/17 08:44:11;;;;;;;7.10;6.50;;;29.90;47.60;;;;;;4977669;28;20642;-74
2023/06/17 08:46:38;;;;;;;7.07;6.47;;;29.30;47.40;;;;;;4977423;28;20451;-73
2023/06/17 08:49:04;;;;;;;7.30;6.70;;;28.60;47.80;;;;;;4985364;28;20489;-73
2023/06/17 08:51:30;;;;;;;8.17;6.70;;;28.40;48.60;;;;;;4977906;28;20844;-73
2023/06/17 08:53:57;;;;;;;8.03;7.33;;;28.50;48.50;;;;;;4973274;28;20236;-73
2023/06/17 08:56:23;;;;;;;8.10;7.50;;;29.40;47.80;;;;;;4982041;28;20828;-73
2023/06/17 08:58:49;;;;;;;8.30;7.53;;;30.40;46.60;;;;;;4974699;28;20442;-73
2023/06/17 09:01:17;;;;;;;6.87;6.40;;;30.70;45.90;;;;;;4968412;28;20459;-73
2023/06/17 09:03:42;;;;;;;7.40;6.80;;;30.70;45.20;;;;;;4973833;28;20982;-74
2023/06/17 09:06:26;;;;;;;7.40;6.90;;;30.90;44.20;;;;;;4974653;28;20454;-73
2023/06/17 09:08:53;;;;;;;8.97;8.17;;;30.00;45.50;;;;;;4980224;28;20171;-73
2023/06/17 09:11:24;;;;;;;9.10;8.30;;;30.40;44.70;;;;;;4984256;28;20928;-73
2023/06/17 09:13:52;;;;;;;9.17;8.47;;;30.90;46.70;;;;;;4969982;28;20509;-73
2023/06/17 09:16:23;;;;;;;8.20;7.60;;;31.30;46.30;;;;;;4974107;28;20855;-74
2023/06/17 09:18:54;;;;;;;8.77;8.07;;;31.50;46.40;;;;;;4975829;28;20890;-74
2023/06/17 09:21:20;;;;;;;12.80;8.30;;;31.30;45.60;;;;;;4975542;28;21037;-74
2023/06/17 09:23:52;;;;;;;7.60;7.10;;;30.60;46.40;;;;;;4985823;28;20434;-74
2023/06/17 09:26:17;;;;;;;8.03;7.40;;;30.20;47.00;;;;;;4981275;28;20621;-73
2023/06/17 09:28:44;;;;;;;9.60;8.70;;;30.50;47.10;;;;;;4971891;28;20594;-73
2023/06/17 09:31:09;;;;;;;8.00;7.30;;;30.80;47.20;;;;;;4974075;28;20238;-74
2023/06/17 09:33:35;;;;;;;7.43;6.73;;;31.00;45.90;;;;;;4961331;28;20507;-73
2023/06/17 09:36:03;;;;;;;7.80;7.20;;;31.50;44.80;;;;;;4969945;28;20211;-73
2023/06/17 09:38:30;;;;;;;7.73;7.10;;;31.70;43.90;;;;;;4974294;28;20200;-74
2023/06/17 09:40:58;;;;;;;9.23;8.47;;;32.40;42.70;;;;;;4971206;28;20490;-74
2023/06/17 09:43:27;;;;;;;7.43;6.80;;;32.90;41.40;;;;;;4978604;28;20515;-73
2023/06/17 09:46:01;;;;;;;8.43;7.60;;;32.70;41.70;;;;;;4975191;28;20447;-74
2023/06/17 09:48:47;;;;;;;7.60;6.50;;;32.60;41.80;;;;;;4974904;28;20427;-73
2023/06/17 09:51:14;;;;;;;6.97;6.33;;;32.20;40.00;;;;;;4972218;28;20448;-73
2023/06/17 09:53:42;;;;;;;8.47;6.17;;;32.20;38.80;;;;;;4974695;28;20439;-73
2023/06/17 09:56:10;;;;;;;6.80;6.30;;;31.70;40.00;;;;;;4985386;28;20546;-73
2023/06/17 09:58:37;;;;;;;7.80;6.90;;;31.10;40.10;;;;;;4973193;28;20858;-73
2023/06/17 10:01:07;;;;;;;7.10;6.60;;;31.00;40.90;;;;;;4972970;28;20458;-73
2023/06/17 10:03:33;;;;;;;7.43;6.93;;;30.90;41.40;;;;;;4955575;29;20496;-74
2023/06/17 10:06:19;;;;;;;8.00;6.40;;;30.80;41.40;;;;;;4958017;28;20454;-73
2023/06/17 10:08:48;;;;;;;7.67;7.07;;;30.30;41.70;;;;;;4974659;28;20435;-73
2023/06/17 10:11:17;;;;;;;8.27;7.60;;;30.60;42.20;;;;;;4974228;28;20957;-74
2023/06/17 10:13:46;;;;;;;7.43;6.83;;;31.90;41.60;;;;;;4988115;28;20836;-73
2023/06/17 10:16:15;;;;;;;7.70;7.20;;;32.80;40.10;;;;;;4988094;28;20442;-73
2023/06/17 10:18:44;;;;;;;9.47;7.03;;;34.10;38.90;;;;;;4975766;28;20471;-73
2023/06/17 10:21:12;;;;;;;7.23;6.77;;;34.60;38.50;;;;;;4972708;28;20487;-74
2023/06/17 10:23:40;;;;;;;7.07;6.67;;;34.20;37.80;;;;;;4984340;28;20443;-73
2023/06/17 10:26:06;;;;;;;7.50;6.80;;;33.40;37.80;;;;;;4976813;28;20506;-73
2023/06/17 10:28:53;;;;;;;7.37;6.87;;;32.40;38.30;;;;;;4971663;28;20439;-73
2023/06/17 10:31:26;;;;;;;7.93;7.33;;;31.50;38.80;;;;;;4972261;28;20431;-72
2023/06/17 10:33:53;;;;;;;7.40;6.80;;;30.50;39.90;;;;;;4965577;28;20448;-75
2023/06/17 10:36:22;;;;;;;7.90;7.30;;;30.10;40.70;;;;;;4973825;28;20470;-75
2023/06/17 10:38:55;;;;;;;7.37;6.60;;;30.00;41.90;;;;;;4972779;28;20443;-75
2023/06/17 10:41:20;;;;;;;8.07;7.37;;;29.80;40.90;;;;;;4975874;28;20466;-72
2023/06/17 10:43:49;;;;;;;7.70;7.00;;;30.90;40.60;;;;;;4979991;28;20436;-72
2023/06/17 10:46:23;;;;;;;6.87;6.20;;;32.90;38.20;;;;;;4976847;28;20210;-73
2023/06/17 10:48:49;;;;;;;7.50;6.90;;;34.70;37.20;;;;;;4969605;28;20446;-72
2023/06/17 10:51:15;;;;;;;6.90;6.33;;;36.30;34.70;;;;;;4970370;28;20471;-72
2023/06/17 10:53:47;;;;;;;6.70;6.30;;;35.90;34.20;;;;;;4972696;28;20186;-72
2023/06/17 10:56:13;;;;;;;7.13;6.67;;;36.20;33.20;;;;;;4973693;28;20200;-73
2023/06/17 10:58:45;;;;;;;7.40;6.90;;;36.10;32.80;;;;;;4975165;28;20440;-72
2023/06/17 11:01:11;;;;;;;10.00;6.50;;;35.80;33.30;;;;;;4973195;28;20208;-73
2023/06/17 11:03:37;;;;;;;7.43;6.87;;;36.50;32.90;;;;;;4972985;28;20464;-72
2023/06/17 11:06:04;;;;;;;7.70;7.10;;;37.30;32.30;;;;;;4972691;28;20517;-73
2023/06/17 11:08:32;;;;;;;6.70;6.20;;;37.40;31.50;;;;;;4975036;28;20964;-73
2023/06/17 11:11:16;;;;;;;7.40;6.87;;;35.60;31.70;;;;;;4974843;28;20439;-72
2023/06/17 11:13:44;;;;;;;6.47;6.07;;;34.10;32.60;;;;;;4970462;28;20504;-73
2023/06/17 11:16:10;;;;;;;8.00;6.70;;;33.10;33.50;;;;;;4970247;28;20463;-74
2023/06/17 11:18:38;;;;;;;7.80;6.73;;;31.90;34.30;;;;;;4968343;28;20452;-74
2023/06/17 11:21:04;;;;;;;7.53;6.27;;;32.70;34.60;;;;;;4972913;28;20471;-76
2023/06/17 11:23:30;;;;;;;7.50;6.90;;;34.00;34.90;;;;;;4969433;28;20900;-73
2023/06/17 11:25:56;;;;;;;6.40;5.90;;;35.40;31.20;;;;;;4971008;28;20558;-71
2023/06/17 11:28:22;;;;;;;7.47;6.87;;;35.80;31.40;;;;;;4973649;28;20545;-71
2023/06/17 11:30:49;;;;;;;6.47;6.00;;;36.30;31.00;;;;;;4956023;28;20184;-71
2023/06/17 11:33:14;;;;;;;6.30;5.80;;;37.00;30.50;;;;;;4980240;28;20190;-71
2023/06/17 11:35:42;;;;;;;7.67;6.57;;;36.90;30.00;;;;;;4982134;28;20459;-72
2023/06/17 11:38:08;;;;;;;6.90;6.50;;;35.60;31.80;;;;;;4969765;28;20183;-71
2023/06/17 11:40:33;;;;;;;7.60;7.10;;;35.40;31.30;;;;;;4969823;28;20917;-71
2023/06/17 11:43:00;;;;;;;5.90;5.50;;;35.50;30.70;;;;;;4974053;28;20435;-72
2023/06/17 11:45:27;;;;;;;6.77;6.17;;;37.10;29.70;;;;;;4968533;28;20197;-71
2023/06/17 11:47:53;;;;;;;7.50;6.50;;;39.10;30.00;;;;;;4976906;28;20438;-71
2023/06/17 11:50:18;;;;;;;6.93;5.70;;;40.50;29.70;;;;;;4976364;28;20438;-70
2023/06/17 11:52:56;;;;;;;6.70;6.20;;;41.70;29.20;;;;;;4971375;28;20709;-70
2023/06/17 11:55:34;;;;;;;6.00;5.60;;;41.90;27.60;;;;;;4976028;28;20678;-72
2023/06/17 11:58:02;;;;;;;6.67;6.20;;;40.20;27.90;;;;;;4959867;28;20444;-73
2023/06/17 12:00:28;;;;;;;6.30;5.73;;;38.80;28.00;;;;;;4969842;28;20486;-72
2023/06/17 12:02:56;;;;;;;6.70;6.10;;;38.20;29.20;;;;;;4969499;28;20449;-74
2023/06/17 12:05:26;;;;;;;6.50;6.00;;;39.40;28.50;;;;;;4965931;28;20462;-72
2023/06/17 12:07:52;;;;;;;5.83;5.33;;;41.20;27.50;;;;;;4971293;28;20435;-73
2023/06/17 12:10:17;;;;;;;5.77;5.40;;;42.60;27.10;;;;;;4969035;28;20446;-72
2023/06/17 12:12:43;;;;;;;6.40;5.97;;;44.00;25.90;;;;;;4967501;28;20179;-73
2023/06/17 12:15:12;;;;;;;5.57;5.20;;;44.40;25.00;;;;;;4965596;28;20203;-72
2023/06/17 12:17:42;;;;;;;5.93;5.40;;;44.90;25.30;;;;;;4972475;28;20183;-72
2023/06/17 12:20:15;;;;;;;6.40;5.90;;;44.50;23.90;;;;;;4972952;28;20435;-74
2023/06/17 12:22:42;;;;;;;5.23;4.83;;;42.90;24.50;;;;;;4978951;28;20441;-72
2023/06/17 12:25:08;;;;;;;6.57;6.17;;;41.40;24.60;;;;;;4980565;28;20613;-73
2023/06/17 12:27:34;;;;;;;5.93;5.43;;;39.20;25.50;;;;;;4963211;28;20854;-73
2023/06/17 12:30:02;;;;;;;5.80;5.50;;;38.20;26.20;;;;;;4972117;28;20431;-73
2023/06/17 12:32:28;;;;;;;7.43;6.70;;;39.70;26.10;;;;;;4971322;28;20323;-73
2023/06/17 12:34:54;;;;;;;6.17;5.77;;;39.90;25.80;;;;;;4978681;28;20534;-72
2023/06/17 12:37:24;;;;;;;7.27;6.63;;;39.70;25.30;;;;;;4978762;28;20191;-72
2023/06/17 12:39:51;;;;;;;6.43;6.03;;;38.80;25.70;;;;;;4970944;28;20168;-75
2023/06/17 12:42:17;;;;;;;6.50;6.00;;;39.50;26.10;;;;;;4974079;28;20434;-73